createdAt,value
2023-03-27T00:01:22.357Z,5.81
2023-03-27T00:03:50.391Z,5.94
2023-03-27T00:06:19.484Z,5.85
2023-03-27T00:08:51.213Z,5.97
2023-03-27T00:11:20.088Z,6.06
2023-03-27T00:13:50.823Z,6.13
2023-03-27T00:16:19.681Z,6.20
2023-03-27T00:18:46.723Z,6.22
2023-03-27T00:21:13.703Z,6.19
2023-03-27T00:23:40.718Z,6.11
2023-03-27T00:26:07.542Z,6.11
2023-03-27T00:28:35.476Z,6.11
2023-03-27T00:31:02.799Z,6.17
2023-03-27T00:33:29.528Z,6.17
2023-03-27T00:35:56.670Z,6.11
2023-03-27T00:38:24.511Z,6.13
2023-03-27T00:40:54.457Z,6.08
2023-03-27T00:43:26.246Z,6.13
2023-03-27T00:45:58.835Z,6.12
2023-03-27T00:48:26.181Z,6.15
2023-03-27T00:50:53.944Z,6.20
2023-03-27T00:53:24.981Z,6.17
2023-03-27T00:55:54.837Z,6.10
2023-03-27T00:58:28.644Z,6.04
2023-03-27T01:00:57.297Z,6.07
2023-03-27T01:03:31.115Z,6.08
2023-03-27T01:06:01.073Z,6.01
2023-03-27T01:08:31.944Z,5.98
2023-03-27T01:11:01.832Z,5.90
2023-03-27T01:13:56.599Z,5.88
2023-03-27T01:16:51.001Z,5.83
2023-03-27T01:20:05.388Z,5.86
2023-03-27T01:22:59.864Z,5.74
2023-03-27T01:25:51.619Z,5.76
2023-03-27T01:28:30.160Z,5.61
2023-03-27T01:31:10.151Z,5.58
2023-03-27T01:33:56.181Z,5.56
2023-03-27T01:36:58.273Z,5.55
2023-03-27T01:39:27.561Z,5.59
2023-03-27T01:42:13.899Z,5.55
2023-03-27T01:45:02.796Z,5.48
2023-03-27T01:47:48.008Z,5.44
2023-03-27T01:50:29.056Z,5.47
2023-03-27T01:53:02.161Z,5.47
2023-03-27T01:55:34.566Z,5.33
2023-03-27T01:58:08.502Z,5.32
2023-03-27T02:00:51.920Z,5.21
2023-03-27T02:03:22.718Z,4.99
2023-03-27T02:05:56.673Z,5.04
2023-03-27T02:08:37.606Z,5.11
2023-03-27T02:11:13.190Z,5.11
2023-03-27T02:13:46.020Z,5.20
2023-03-27T02:16:18.216Z,5.17
2023-03-27T02:18:54.440Z,5.18
2023-03-27T02:21:23.614Z,5.25
2023-03-27T02:23:50.659Z,5.21
2023-03-27T02:26:17.932Z,5.13
2023-03-27T02:29:33.860Z,4.76
2023-03-27T02:32:19.705Z,4.91
2023-03-27T02:34:57.165Z,4.93
2023-03-27T02:37:46.374Z,4.86
2023-03-27T02:40:33.525Z,4.77
2023-03-27T02:43:37.614Z,4.97
2023-03-27T02:46:20.652Z,4.97
2023-03-27T02:48:55.036Z,5.11
2023-03-27T02:51:27.150Z,5.07
2023-03-27T02:53:55.856Z,5.17
2023-03-27T02:56:26.132Z,5.04
2023-03-27T02:59:20.086Z,4.80
2023-03-27T03:01:47.276Z,4.86
2023-03-27T03:04:31.445Z,4.84
2023-03-27T03:06:59.165Z,4.97
2023-03-27T03:09:30.115Z,5.10
2023-03-27T03:11:58.170Z,4.80
2023-03-27T03:14:31.095Z,4.64
2023-03-27T03:16:57.975Z,4.82
2023-03-27T03:19:24.859Z,4.94
2023-03-27T03:21:51.985Z,5.13
2023-03-27T03:24:19.123Z,5.11
2023-03-27T03:26:49.913Z,5.03
2023-03-27T03:29:19.211Z,5.00
2023-03-27T03:32:00.843Z,4.69
2023-03-27T03:34:27.973Z,4.56
2023-03-27T03:36:55.268Z,4.78
2023-03-27T03:39:28.620Z,4.77
2023-03-27T03:41:55.423Z,4.86
2023-03-27T03:44:22.095Z,4.97
2023-03-27T03:46:49.254Z,5.06
2023-03-27T03:49:20.669Z,5.09
2023-03-27T03:51:47.974Z,5.00
2023-03-27T03:54:32.916Z,4.92
2023-03-27T03:57:00.004Z,4.75
2023-03-27T03:59:26.977Z,4.82
2023-03-27T04:02:18.263Z,4.97
2023-03-27T04:04:46.567Z,5.05
2023-03-27T04:07:13.925Z,5.08
2023-03-27T04:09:45.487Z,4.70
2023-03-27T04:12:23.698Z,4.86
2023-03-27T04:14:57.983Z,4.96
2023-03-27T04:17:44.170Z,4.91
2023-03-27T04:20:15.194Z,4.87
2023-03-27T04:22:46.453Z,4.95
2023-03-27T04:25:17.281Z,5.07
2023-03-27T04:27:45.024Z,4.99
2023-03-27T04:30:23.101Z,4.80
2023-03-27T04:33:25.741Z,4.79
2023-03-27T04:36:16.098Z,4.82
2023-03-27T04:38:54.256Z,4.71
2023-03-27T04:41:21.409Z,4.81
2023-03-27T04:43:48.236Z,4.90
2023-03-27T04:46:14.953Z,4.97
2023-03-27T04:48:43.248Z,4.97
2023-03-27T04:51:26.730Z,4.88
2023-03-27T04:53:56.485Z,4.84
2023-03-27T04:56:24.948Z,4.57
2023-03-27T04:58:54.424Z,4.58
2023-03-27T05:01:21.465Z,4.68
2023-03-27T05:04:06.939Z,4.72
2023-03-27T05:06:44.590Z,4.72
2023-03-27T05:09:15.557Z,4.82
2023-03-27T05:11:44.815Z,4.90
2023-03-27T05:14:11.422Z,4.80
2023-03-27T05:16:41.230Z,4.91
2023-03-27T05:19:11.276Z,5.06
2023-03-27T05:21:43.376Z,5.12
2023-03-27T05:24:11.320Z,5.15
2023-03-27T05:26:39.140Z,5.15
2023-03-27T05:29:06.115Z,5.17
2023-03-27T05:31:37.154Z,5.08
2023-03-27T05:34:24.149Z,5.20
2023-03-27T05:36:55.081Z,5.05
2023-03-27T05:39:22.263Z,5.09
2023-03-27T05:41:49.296Z,5.02
2023-03-27T05:44:22.224Z,5.04
2023-03-27T05:46:49.465Z,5.06
2023-03-27T05:49:22.802Z,5.07
2023-03-27T05:51:55.161Z,4.99
2023-03-27T05:54:22.051Z,5.03
2023-03-27T05:56:54.789Z,5.11
2023-03-27T05:59:22.045Z,5.22
2023-03-27T06:01:51.954Z,5.11
2023-03-27T06:04:24.371Z,5.27
2023-03-27T06:07:03.165Z,5.42
2023-03-27T06:09:31.813Z,5.45
2023-03-27T06:12:18.824Z,5.74
2023-03-27T06:14:46.767Z,5.96
2023-03-27T06:17:36.413Z,5.94
2023-03-27T06:20:12.466Z,5.98
2023-03-27T06:22:55.682Z,6.20
2023-03-27T06:25:32.330Z,6.36
2023-03-27T06:27:59.605Z,6.33
2023-03-27T06:30:27.234Z,6.30
2023-03-27T06:33:20.800Z,6.42
2023-03-27T06:35:53.074Z,6.41
2023-03-27T06:38:32.009Z,6.73
2023-03-27T06:41:00.522Z,6.91
2023-03-27T06:43:52.868Z,7.07
2023-03-27T06:46:44.724Z,7.29
2023-03-27T06:49:38.486Z,7.58
2023-03-27T06:52:12.172Z,7.82
2023-03-27T06:54:39.101Z,7.99
2023-03-27T06:57:06.452Z,8.04
2023-03-27T06:59:48.867Z,8.18
2023-03-27T07:02:20.555Z,8.31
2023-03-27T07:05:04.247Z,8.47
2023-03-27T07:07:36.137Z,8.74
2023-03-27T07:10:03.531Z,8.73
2023-03-27T07:12:30.593Z,8.73
2023-03-27T07:14:57.807Z,8.78
2023-03-27T07:17:37.840Z,8.94
2023-03-27T07:20:13.104Z,9.11
2023-03-27T07:22:43.272Z,9.19
2023-03-27T07:25:21.359Z,9.32
2023-03-27T07:27:48.302Z,9.41
2023-03-27T07:30:15.208Z,9.39
2023-03-27T07:32:44.709Z,9.58
2023-03-27T07:35:12.029Z,9.73
2023-03-27T07:37:39.393Z,9.76
2023-03-27T07:40:36.948Z,9.85
2023-03-27T07:43:35.781Z,10.13
2023-03-27T07:46:06.110Z,10.05
2023-03-27T07:48:32.990Z,10.02
2023-03-27T07:51:10.678Z,10.01
2023-03-27T07:53:41.605Z,10.04
2023-03-27T07:56:21.087Z,10.13
2023-03-27T07:58:49.241Z,10.07
2023-03-27T08:01:20.448Z,10.13
2023-03-27T08:03:48.964Z,10.27
2023-03-27T08:06:18.116Z,10.39
2023-03-27T08:08:46.016Z,10.44
2023-03-27T08:11:23.129Z,10.41
2023-03-27T08:13:57.072Z,10.38
2023-03-27T08:16:27.768Z,10.36
2023-03-27T08:18:57.698Z,10.28
2023-03-27T08:21:26.244Z,10.28
2023-03-27T08:23:57.313Z,10.31
2023-03-27T08:26:27.902Z,10.26
2023-03-27T08:29:02.000Z,10.25
2023-03-27T08:31:31.307Z,10.30
2023-03-27T08:34:00.291Z,10.41
2023-03-27T08:36:34.426Z,10.36
2023-03-27T08:39:02.542Z,10.35
2023-03-27T08:41:42.526Z,10.34
2023-03-27T08:44:17.880Z,10.41
2023-03-27T08:47:11.318Z,10.44
2023-03-27T08:49:52.688Z,10.43
2023-03-27T08:52:31.932Z,10.45
2023-03-27T08:55:49.863Z,10.46
2023-03-27T08:58:22.427Z,10.45
2023-03-27T09:01:17.397Z,10.54
2023-03-27T09:03:56.791Z,10.61
2023-03-27T09:06:25.869Z,10.67
2023-03-27T09:09:18.810Z,10.67
2023-03-27T09:12:05.381Z,10.68
2023-03-27T09:14:40.868Z,10.75
2023-03-27T09:17:17.151Z,10.72
2023-03-27T09:20:17.642Z,10.76
2023-03-27T09:22:52.788Z,10.83
2023-03-27T09:25:38.082Z,10.90
2023-03-27T09:28:50.572Z,10.91
2023-03-27T09:31:23.062Z,11.02
2023-03-27T09:33:49.777Z,11.05
2023-03-27T09:36:17.332Z,11.06
2023-03-27T09:38:50.697Z,11.11
2023-03-27T09:41:23.822Z,11.05
2023-03-27T09:44:06.355Z,11.10
2023-03-27T09:46:40.237Z,11.08
2023-03-27T09:49:14.043Z,11.13
2023-03-27T09:51:56.761Z,11.18
2023-03-27T09:54:54.976Z,11.26
2023-03-27T09:57:35.453Z,11.33
2023-03-27T10:00:21.498Z,11.47
2023-03-27T10:03:07.988Z,11.48
2023-03-27T10:05:38.919Z,11.51
2023-03-27T10:08:26.649Z,11.58
2023-03-27T10:11:33.179Z,11.66
2023-03-27T10:14:17.564Z,11.79
2023-03-27T10:16:46.285Z,11.93
2023-03-27T10:19:41.430Z,12.21
2023-03-27T10:22:21.625Z,12.22
2023-03-27T10:24:49.586Z,12.30
2023-03-27T10:27:34.525Z,12.26
2023-03-27T10:30:38.082Z,12.28
2023-03-27T10:33:34.158Z,12.35
2023-03-27T10:36:37.988Z,12.30
2023-03-27T10:39:13.843Z,12.36
2023-03-27T10:42:04.738Z,12.64
2023-03-27T10:44:37.566Z,12.50
2023-03-27T10:47:15.040Z,12.51
2023-03-27T10:49:48.423Z,12.43
2023-03-27T10:52:38.068Z,12.49
2023-03-27T10:55:34.537Z,12.54
2023-03-27T10:58:06.517Z,12.73
2023-03-27T11:00:41.077Z,12.75
2023-03-27T11:03:16.448Z,12.71
2023-03-27T11:05:48.429Z,12.89
2023-03-27T11:08:56.405Z,12.76
2023-03-27T11:11:32.619Z,12.76
2023-03-27T11:14:05.398Z,12.79
2023-03-27T11:16:41.101Z,12.83
2023-03-27T11:19:36.090Z,12.97
2023-03-27T11:22:33.040Z,13.00
2023-03-27T11:25:35.382Z,12.94
2023-03-27T11:28:08.036Z,12.99
2023-03-27T11:30:44.241Z,13.00
2023-03-27T11:33:29.628Z,13.04
2023-03-27T11:36:30.032Z,13.08
2023-03-27T11:39:22.677Z,13.11
2023-03-27T11:41:54.245Z,13.17
2023-03-27T11:44:23.646Z,13.23
2023-03-27T11:47:18.765Z,13.13
2023-03-27T11:50:24.971Z,13.27
2023-03-27T11:53:51.439Z,13.28
2023-03-27T11:57:04.303Z,13.29
2023-03-27T11:59:51.236Z,13.34
2023-03-27T12:02:57.592Z,13.33
2023-03-27T12:06:05.423Z,13.56
2023-03-27T12:08:43.048Z,13.54
2023-03-27T12:11:14.784Z,13.45
2023-03-27T12:14:17.509Z,13.49
2023-03-27T12:17:12.624Z,13.45
2023-03-27T12:20:53.001Z,13.56
2023-03-27T12:23:41.494Z,13.82
2023-03-27T12:27:08.069Z,13.90
2023-03-27T12:30:14.752Z,13.97
2023-03-27T12:32:52.099Z,13.82
2023-03-27T12:35:26.998Z,13.84
2023-03-27T12:38:04.070Z,13.66
2023-03-27T12:40:48.054Z,13.60
2023-03-27T12:43:39.809Z,13.71
2023-03-27T12:46:23.057Z,13.67
2023-03-27T12:49:10.608Z,13.71
2023-03-27T12:51:51.330Z,13.90
2023-03-27T12:54:39.394Z,14.12
2023-03-27T12:57:24.943Z,14.04
2023-03-27T12:59:59.153Z,13.71
2023-03-27T13:03:11.760Z,13.76
2023-03-27T13:06:01.554Z,13.76
2023-03-27T13:08:55.443Z,13.76
2023-03-27T13:11:37.282Z,13.71
2023-03-27T13:14:16.371Z,13.76
2023-03-27T13:16:49.357Z,13.87
2023-03-27T13:19:38.709Z,13.93
2023-03-27T13:22:43.040Z,13.89
2023-03-27T13:25:40.307Z,13.95
2023-03-27T13:28:34.458Z,13.99
2023-03-27T13:31:14.668Z,13.91
2023-03-27T13:34:26.981Z,14.00
2023-03-27T13:37:11.808Z,14.07
2023-03-27T13:39:56.179Z,14.10
2023-03-27T13:42:37.647Z,14.03
2023-03-27T13:45:17.674Z,14.12
2023-03-27T13:48:13.824Z,14.05
2023-03-27T13:51:11.227Z,14.04
2023-03-27T13:53:38.589Z,14.05
2023-03-27T13:56:29.896Z,14.05
2023-03-27T13:58:59.592Z,14.08
2023-03-27T14:01:45.306Z,14.13
2023-03-27T14:04:24.165Z,14.07
2023-03-27T14:07:09.543Z,14.13
2023-03-27T14:09:48.102Z,14.11
2023-03-27T14:12:38.110Z,14.21
2023-03-27T14:15:26.989Z,14.24
2023-03-27T14:18:29.037Z,14.16
2023-03-27T14:21:00.598Z,14.11
2023-03-27T14:23:32.481Z,14.02
2023-03-27T14:26:29.660Z,14.07
2023-03-27T14:29:01.826Z,14.12
2023-03-27T14:31:38.192Z,14.21
2023-03-27T14:34:12.169Z,14.14
2023-03-27T14:36:49.841Z,14.36
2023-03-27T14:39:28.420Z,14.27
2023-03-27T14:42:03.372Z,14.17
2023-03-27T14:44:33.997Z,14.27
2023-03-27T14:47:12.852Z,14.44
2023-03-27T14:49:47.466Z,14.47
2023-03-27T14:52:25.671Z,14.69
2023-03-27T14:55:15.498Z,14.67
2023-03-27T14:57:44.582Z,14.58
2023-03-27T15:00:18.901Z,14.52
2023-03-27T15:02:48.607Z,14.32
2023-03-27T15:05:18.491Z,14.17
2023-03-27T15:07:51.651Z,14.40
2023-03-27T15:10:37.576Z,14.42
2023-03-27T15:13:10.037Z,14.29
2023-03-27T15:15:42.859Z,14.25
2023-03-27T15:18:49.337Z,14.16
2023-03-27T15:21:58.502Z,14.00
2023-03-27T15:24:30.645Z,13.90
2023-03-27T15:27:00.449Z,14.05
2023-03-27T15:29:48.027Z,14.06
2023-03-27T15:32:22.121Z,14.12
2023-03-27T15:34:56.856Z,14.26
2023-03-27T15:37:32.951Z,14.32
2023-03-27T15:40:01.676Z,14.43
2023-03-27T15:42:48.416Z,14.36
2023-03-27T15:45:16.904Z,14.11
2023-03-27T15:47:45.465Z,14.04
2023-03-27T15:50:22.656Z,13.93
2023-03-27T15:52:55.067Z,13.88
2023-03-27T15:55:40.682Z,13.88
2023-03-27T15:58:39.984Z,13.89
2023-03-27T16:01:18.298Z,13.95
2023-03-27T16:03:48.277Z,14.00
2023-03-27T16:06:26.704Z,14.02
2023-03-27T16:08:55.057Z,13.97
2023-03-27T16:11:40.459Z,14.04
2023-03-27T16:14:21.804Z,13.87
2023-03-27T16:16:53.766Z,13.71
2023-03-27T16:19:20.800Z,13.72
2023-03-27T16:21:55.785Z,13.74
2023-03-27T16:24:22.616Z,13.78
2023-03-27T16:26:50.371Z,13.81
2023-03-27T16:29:18.722Z,13.74
2023-03-27T16:31:45.331Z,13.70
2023-03-27T16:34:22.910Z,13.74
2023-03-27T16:36:50.371Z,13.83
2023-03-27T16:39:17.059Z,13.67
2023-03-27T16:41:43.803Z,13.67
2023-03-27T16:44:10.848Z,13.68
2023-03-27T16:46:37.871Z,13.67
2023-03-27T16:49:04.540Z,13.58
2023-03-27T16:51:31.628Z,13.60
2023-03-27T16:53:58.311Z,13.41
2023-03-27T16:56:25.042Z,13.31
2023-03-27T16:58:51.737Z,13.03
2023-03-27T17:01:18.836Z,12.80
2023-03-27T17:03:46.497Z,12.59
2023-03-27T17:06:15.159Z,12.45
2023-03-27T17:08:42.253Z,12.42
2023-03-27T17:11:11.686Z,12.37
2023-03-27T17:13:42.924Z,12.28
2023-03-27T17:16:10.749Z,12.09
2023-03-27T17:18:37.529Z,12.02
2023-03-27T17:21:04.510Z,12.02
2023-03-27T17:23:31.719Z,11.94
2023-03-27T17:26:03.275Z,11.88
2023-03-27T17:28:31.058Z,11.85
2023-03-27T17:31:04.430Z,11.91
2023-03-27T17:33:32.952Z,11.92
2023-03-27T17:35:59.814Z,11.77
2023-03-27T17:38:27.566Z,11.61
2023-03-27T17:40:54.354Z,11.37
2023-03-27T17:43:21.143Z,11.37
2023-03-27T17:45:49.040Z,11.46
2023-03-27T17:48:15.939Z,11.46
2023-03-27T17:53:12.332Z,11.20
2023-03-27T17:55:42.634Z,11.20
2023-03-27T17:58:10.195Z,11.19
2023-03-27T18:00:41.382Z,11.19
2023-03-27T18:03:09.014Z,11.12
2023-03-27T18:05:38.034Z,11.10
2023-03-27T18:08:06.114Z,11.20
2023-03-27T18:10:36.077Z,11.12
2023-03-27T18:13:03.392Z,10.99
2023-03-27T18:15:30.448Z,11.07
2023-03-27T18:17:57.974Z,10.95
2023-03-27T18:20:24.610Z,10.88
2023-03-27T18:22:51.221Z,10.90
2023-03-27T18:25:18.061Z,10.69
2023-03-27T18:27:45.113Z,10.53
2023-03-27T18:30:17.259Z,10.51
2023-03-27T18:32:45.809Z,10.45
2023-03-27T18:35:17.739Z,10.42
2023-03-27T18:37:45.529Z,10.39
2023-03-27T18:40:15.082Z,10.42
2023-03-27T18:42:45.358Z,10.37
2023-03-27T18:45:14.275Z,10.02
2023-03-27T18:47:42.927Z,9.91
2023-03-27T18:50:13.880Z,9.89
2023-03-27T18:52:41.573Z,9.79
2023-03-27T18:55:09.633Z,9.87
2023-03-27T18:57:36.792Z,9.84
2023-03-27T19:00:07.469Z,9.92
2023-03-27T19:02:36.244Z,9.81
2023-03-27T19:05:04.145Z,9.76
2023-03-27T19:07:31.267Z,9.69
2023-03-27T19:09:58.767Z,9.68
2023-03-27T19:12:37.016Z,9.68
2023-03-27T19:15:33.646Z,9.62
2023-03-27T19:18:01.182Z,9.58
2023-03-27T19:21:03.313Z,9.60
2023-03-27T19:23:48.813Z,9.50
2023-03-27T19:26:21.955Z,9.48
2023-03-27T19:28:48.641Z,9.49
2023-03-27T19:31:15.787Z,9.41
2023-03-27T19:33:42.892Z,9.44
2023-03-27T19:36:10.165Z,9.38
2023-03-27T19:38:38.446Z,9.41
2023-03-27T19:41:08.667Z,9.39
2023-03-27T19:43:35.435Z,9.29
2023-03-27T19:46:15.082Z,9.18
2023-03-27T19:48:50.076Z,9.19
2023-03-27T19:51:28.617Z,9.19
2023-03-27T19:53:55.571Z,9.18
2023-03-27T19:56:24.647Z,9.26
2023-03-27T19:58:52.303Z,9.26
2023-03-27T20:01:19.889Z,9.26
2023-03-27T20:03:47.007Z,9.08
2023-03-27T20:06:18.996Z,9.12
2023-03-27T20:08:46.054Z,9.05
2023-03-27T20:11:15.059Z,9.06
2023-03-27T20:13:55.463Z,9.24
2023-03-27T20:16:26.354Z,9.30
2023-03-27T20:19:04.183Z,9.32
2023-03-27T20:21:40.351Z,9.18
2023-03-27T20:24:12.698Z,9.15
2023-03-27T20:26:48.011Z,8.99
2023-03-27T20:29:21.075Z,8.91
2023-03-27T20:31:48.591Z,8.83
2023-03-27T20:34:19.756Z,8.86
2023-03-27T20:36:47.529Z,8.84
2023-03-27T20:39:34.727Z,8.74
2023-03-27T20:42:01.410Z,8.77
2023-03-27T20:44:36.512Z,8.78
2023-03-27T20:47:10.688Z,8.73
2023-03-27T20:49:41.535Z,8.76
2023-03-27T20:52:13.858Z,8.75
2023-03-27T20:54:40.651Z,8.69
2023-03-27T20:57:11.154Z,8.67
2023-03-27T20:59:38.166Z,8.58
2023-03-27T21:02:05.164Z,8.59
2023-03-27T21:04:32.770Z,8.39
2023-03-27T21:06:59.816Z,8.50
2023-03-27T21:09:27.568Z,8.52
2023-03-27T21:11:55.626Z,8.49
2023-03-27T21:14:23.230Z,8.51
2023-03-27T21:16:50.362Z,8.49
2023-03-27T21:19:20.211Z,8.56
2023-03-27T21:21:47.053Z,8.69
2023-03-27T21:24:14.085Z,8.72
2023-03-27T21:26:41.483Z,8.57
2023-03-27T21:29:10.809Z,8.66
2023-03-27T21:31:41.752Z,8.70
2023-03-27T21:34:08.640Z,8.60
2023-03-27T21:36:35.588Z,8.55
2023-03-27T21:39:02.413Z,8.48
2023-03-27T21:41:29.300Z,8.50
2023-03-27T21:43:55.991Z,8.55
2023-03-27T21:46:23.020Z,8.63
2023-03-27T21:48:50.820Z,8.67
2023-03-27T21:51:17.901Z,8.77
2023-03-27T21:53:45.971Z,8.78
2023-03-27T21:56:12.870Z,8.77
2023-03-27T21:58:39.593Z,8.79
2023-03-27T22:01:06.871Z,8.75
2023-03-27T22:03:33.597Z,8.76
2023-03-27T22:06:12.161Z,8.65
2023-03-27T22:08:42.147Z,8.49
2023-03-27T22:11:10.433Z,8.46
2023-03-27T22:13:38.395Z,8.39
2023-03-27T22:16:10.905Z,7.98
2023-03-27T22:18:37.756Z,7.94
2023-03-27T22:21:22.073Z,8.02
2023-03-27T22:23:50.814Z,8.02
2023-03-27T22:26:25.920Z,8.05
2023-03-27T22:28:52.870Z,8.00
2023-03-27T22:31:21.224Z,7.82
2023-03-27T22:33:48.717Z,7.94
2023-03-27T22:36:15.696Z,7.92
2023-03-27T22:38:42.923Z,7.90
2023-03-27T22:41:11.306Z,7.72
2023-03-27T22:43:38.205Z,7.68
2023-03-27T22:46:09.902Z,7.73
2023-03-27T22:48:36.934Z,7.61
2023-03-27T22:51:03.971Z,7.62
2023-03-27T22:53:34.137Z,7.58
2023-03-27T22:56:01.922Z,7.56
2023-03-27T22:58:31.324Z,7.45
2023-03-27T23:00:58.575Z,7.50
2023-03-27T23:03:26.719Z,7.47
2023-03-27T23:05:54.644Z,7.44
2023-03-27T23:08:32.858Z,7.45
2023-03-27T23:11:01.115Z,7.45
2023-03-27T23:13:29.567Z,7.45
2023-03-27T23:15:56.303Z,7.37
2023-03-27T23:18:25.211Z,7.38
2023-03-27T23:20:56.174Z,7.32
2023-03-27T23:23:23.239Z,7.24
2023-03-27T23:25:50.241Z,7.21
2023-03-27T23:28:17.010Z,7.17
2023-03-27T23:30:51.442Z,7.10
2023-03-27T23:33:18.272Z,7.07
2023-03-27T23:35:44.870Z,7.05
2023-03-27T23:38:11.537Z,7.06
2023-03-27T23:40:38.876Z,7.03
2023-03-27T23:43:05.462Z,7.02
2023-03-27T23:45:32.095Z,7.07
2023-03-27T23:47:58.851Z,6.92
2023-03-27T23:50:25.787Z,6.97
2023-03-27T23:52:52.464Z,6.88
2023-03-27T23:55:19.094Z,6.86
2023-03-27T23:57:45.827Z,6.85
